sensor_id;sensor_type;location;lat;lon;timestamp;P1;durP1;ratioP1;P2;durP2;ratioP2
41568;SDS011;27283;52.504;13.358;2023-06-22T00:02:03;20.63;;;13.35;;
41568;SDS011;27283;52.504;13.358;2023-06-22T00:04:35;18.65;;;12.63;;
41568;SDS011;27283;52.504;13.358;2023-06-22T00:07:08;18.45;;;12.63;;
41568;SDS011;27283;52.504;13.358;2023-06-22T00:09:40;18.80;;;13.25;;
41568;SDS011;27283;52.504;13.358;2023-06-22T00:12:12;19.25;;;13.18;;
41568;SDS011;27283;52.504;13.358;2023-06-22T00:14:44;19.40;;;13.43;;
41568;SDS011;27283;52.504;13.358;2023-06-22T00:17:19;18.70;;;12.73;;
41568;SDS011;27283;52.504;13.358;2023-06-22T00:19:51;19.55;;;13.68;;
41568;SDS011;27283;52.504;13.358;2023-06-22T00:22:24;17.77;;;12.93;;
41568;SDS011;27283;52.504;13.358;2023-06-22T00:24:59;20.08;;;13.45;;
41568;SDS011;27283;52.504;13.358;2023-06-22T00:27:31;18.33;;;13.27;;
41568;SDS011;27283;52.504;13.358;2023-06-22T00:30:04;23.08;;;13.35;;
41568;SDS011;27283;52.504;13.358;2023-06-22T00:32:40;19.48;;;12.90;;
41568;SDS011;27283;52.504;13.358;2023-06-22T00:35:12;21.05;;;12.55;;
41568;SDS011;27283;52.504;13.358;2023-06-22T00:37:44;20.23;;;13.70;;
41568;SDS011;27283;52.504;13.358;2023-06-22T00:40:17;20.52;;;12.38;;
41568;SDS011;27283;52.504;13.358;2023-06-22T00:42:50;20.67;;;13.00;;
41568;SDS011;27283;52.504;13.358;2023-06-22T00:45:22;20.40;;;13.70;;
41568;SDS011;27283;52.504;13.358;2023-06-22T00:47:57;19.40;;;14.07;;
41568;SDS011;27283;52.504;13.358;2023-06-22T00:50:31;17.55;;;12.77;;
41568;SDS011;27283;52.504;13.358;2023-06-22T00:53:05;18.92;;;13.77;;
41568;SDS011;27283;52.504;13.358;2023-06-22T00:55:41;16.63;;;12.38;;
41568;SDS011;27283;52.504;13.358;2023-06-22T00:58:15;20.17;;;13.73;;
41568;SDS011;27283;52.504;13.358;2023-06-22T01:00:51;19.65;;;13.88;;
41568;SDS011;27283;52.504;13.358;2023-06-22T01:03:26;20.00;;;13.73;;
41568;SDS011;27283;52.504;13.358;2023-06-22T01:05:59;20.35;;;13.30;;
41568;SDS011;27283;52.504;13.358;2023-06-22T01:08:39;23.55;;;14.00;;
41568;SDS011;27283;52.504;13.358;2023-06-22T01:11:18;19.30;;;13.57;;
41568;SDS011;27283;52.504;13.358;2023-06-22T01:13:56;21.70;;;14.45;;
41568;SDS011;27283;52.504;13.358;2023-06-22T01:16:39;19.77;;;13.57;;
41568;SDS011;27283;52.504;13.358;2023-06-22T01:19:20;18.00;;;12.73;;
41568;SDS011;27283;52.504;13.358;2023-06-22T01:22:00;18.77;;;13.90;;
41568;SDS011;27283;52.504;13.358;2023-06-22T01:24:48;20.52;;;14.00;;
41568;SDS011;27283;52.504;13.358;2023-06-22T01:27:47;19.65;;;13.75;;
41568;SDS011;27283;52.504;13.358;2023-06-22T01:30:32;21.65;;;14.40;;
41568;SDS011;27283;52.504;13.358;2023-06-22T01:33:07;22.60;;;14.85;;
41568;SDS011;27283;52.504;13.358;2023-06-22T01:35:43;23.33;;;14.60;;
41568;SDS011;27283;52.504;13.358;2023-06-22T01:38:16;20.23;;;14.40;;
41568;SDS011;27283;52.504;13.358;2023-06-22T01:40:48;21.08;;;14.30;;
41568;SDS011;27283;52.504;13.358;2023-06-22T01:43:22;23.48;;;14.80;;
41568;SDS011;27283;52.504;13.358;2023-06-22T01:46:02;20.27;;;14.13;;
41568;SDS011;27283;52.504;13.358;2023-06-22T01:48:35;22.17;;;14.63;;
41568;SDS011;27283;52.504;13.358;2023-06-22T01:51:07;21.90;;;14.82;;
41568;SDS011;27283;52.504;13.358;2023-06-22T01:53:49;23.23;;;15.20;;
41568;SDS011;27283;52.504;13.358;2023-06-22T01:56:21;24.40;;;15.77;;
41568;SDS011;27283;52.504;13.358;2023-06-22T01:58:55;27.30;;;16.70;;
41568;SDS011;27283;52.504;13.358;2023-06-22T02:02:21;25.10;;;15.45;;
41568;SDS011;27283;52.504;13.358;2023-06-22T02:04:59;27.40;;;17.08;;
41568;SDS011;27283;52.504;13.358;2023-06-22T02:07:37;27.35;;;18.17;;
41568;SDS011;27283;52.504;13.358;2023-06-22T02:10:16;28.77;;;18.17;;
41568;SDS011;27283;52.504;13.358;2023-06-22T02:12:53;28.55;;;18.63;;
41568;SDS011;27283;52.504;13.358;2023-06-22T02:15:29;27.30;;;18.02;;
41568;SDS011;27283;52.504;13.358;2023-06-22T02:18:04;27.20;;;17.45;;
41568;SDS011;27283;52.504;13.358;2023-06-22T02:20:37;26.25;;;18.13;;
41568;SDS011;27283;52.504;13.358;2023-06-22T02:23:09;26.95;;;17.15;;
41568;SDS011;27283;52.504;13.358;2023-06-22T02:25:41;24.50;;;17.02;;
41568;SDS011;27283;52.504;13.358;2023-06-22T02:28:14;26.92;;;18.70;;
41568;SDS011;27283;52.504;13.358;2023-06-22T02:30:46;28.65;;;19.55;;
41568;SDS011;27283;52.504;13.358;2023-06-22T02:33:22;26.88;;;17.67;;
41568;SDS011;27283;52.504;13.358;2023-06-22T02:37:05;28.50;;;18.33;;
41568;SDS011;27283;52.504;13.358;2023-06-22T02:39:40;30.65;;;19.05;;
41568;SDS011;27283;52.504;13.358;2023-06-22T02:42:12;31.38;;;18.13;;
41568;SDS011;27283;52.504;13.358;2023-06-22T02:44:48;27.30;;;17.92;;
41568;SDS011;27283;52.504;13.358;2023-06-22T02:47:20;28.77;;;19.52;;
41568;SDS011;27283;52.504;13.358;2023-06-22T02:49:55;31.77;;;18.50;;
41568;SDS011;27283;52.504;13.358;2023-06-22T02:52:26;26.23;;;16.98;;
41568;SDS011;27283;52.504;13.358;2023-06-22T02:54:58;24.55;;;17.38;;
41568;SDS011;27283;52.504;13.358;2023-06-22T02:57:30;26.08;;;17.88;;
41568;SDS011;27283;52.504;13.358;2023-06-22T03:00:02;31.98;;;19.63;;
41568;SDS011;27283;52.504;13.358;2023-06-22T03:02:44;27.40;;;18.77;;
41568;SDS011;27283;52.504;13.358;2023-06-22T03:05:20;27.98;;;19.20;;
41568;SDS011;27283;52.504;13.358;2023-06-22T03:07:51;29.15;;;19.88;;
41568;SDS011;27283;52.504;13.358;2023-06-22T03:10:23;28.95;;;18.60;;
41568;SDS011;27283;52.504;13.358;2023-06-22T03:12:58;28.48;;;19.10;;
41568;SDS011;27283;52.504;13.358;2023-06-22T03:15:30;28.58;;;18.48;;
41568;SDS011;27283;52.504;13.358;2023-06-22T03:21:52;24.83;;;18.10;;
41568;SDS011;27283;52.504;13.358;2023-06-22T03:24:24;26.45;;;17.70;;
41568;SDS011;27283;52.504;13.358;2023-06-22T03:26:57;27.52;;;18.33;;
41568;SDS011;27283;52.504;13.358;2023-06-22T03:29:32;29.65;;;17.20;;
41568;SDS011;27283;52.504;13.358;2023-06-22T03:32:05;23.83;;;16.80;;
41568;SDS011;27283;52.504;13.358;2023-06-22T03:34:37;26.15;;;16.00;;
41568;SDS011;27283;52.504;13.358;2023-06-22T03:37:12;24.23;;;15.32;;
41568;SDS011;27283;52.504;13.358;2023-06-22T03:39:44;21.60;;;14.13;;
41568;SDS011;27283;52.504;13.358;2023-06-22T03:42:16;22.40;;;14.48;;
41568;SDS011;27283;52.504;13.358;2023-06-22T03:44:47;21.02;;;14.05;;
41568;SDS011;27283;52.504;13.358;2023-06-22T03:47:21;22.27;;;14.00;;
41568;SDS011;27283;52.504;13.358;2023-06-22T03:49:53;18.48;;;12.88;;
41568;SDS011;27283;52.504;13.358;2023-06-22T03:52:28;20.73;;;12.23;;
41568;SDS011;27283;52.504;13.358;2023-06-22T03:55:04;17.50;;;12.25;;
41568;SDS011;27283;52.504;13.358;2023-06-22T03:57:48;20.92;;;12.30;;
41568;SDS011;27283;52.504;13.358;2023-06-22T04:00:52;18.30;;;11.02;;
41568;SDS011;27283;52.504;13.358;2023-06-22T04:03:24;17.48;;;9.65;;
41568;SDS011;27283;52.504;13.358;2023-06-22T04:05:56;19.40;;;10.18;;
41568;SDS011;27283;52.504;13.358;2023-06-22T04:08:31;15.55;;;9.68;;
41568;SDS011;27283;52.504;13.358;2023-06-22T04:11:03;14.10;;;9.55;;
41568;SDS011;27283;52.504;13.358;2023-06-22T04:13:35;12.70;;;9.25;;
41568;SDS011;27283;52.504;13.358;2023-06-22T04:16:07;16.20;;;9.75;;
41568;SDS011;27283;52.504;13.358;2023-06-22T04:18:39;15.50;;;9.57;;
41568;SDS011;27283;52.504;13.358;2023-06-22T04:21:10;16.10;;;9.45;;
41568;SDS011;27283;52.504;13.358;2023-06-22T04:23:45;13.68;;;9.65;;
41568;SDS011;27283;52.504;13.358;2023-06-22T04:26:17;16.83;;;9.20;;
41568;SDS011;27283;52.504;13.358;2023-06-22T04:28:49;12.80;;;8.50;;
41568;SDS011;27283;52.504;13.358;2023-06-22T04:31:23;12.95;;;7.60;;
41568;SDS011;27283;52.504;13.358;2023-06-22T04:34:07;14.27;;;7.20;;
41568;SDS011;27283;52.504;13.358;2023-06-22T04:36:45;15.13;;;8.02;;
41568;SDS011;27283;52.504;13.358;2023-06-22T04:39:23;15.50;;;7.13;;
41568;SDS011;27283;52.504;13.358;2023-06-22T04:41:58;12.40;;;7.55;;
41568;SDS011;27283;52.504;13.358;2023-06-22T04:44:31;10.27;;;7.32;;
41568;SDS011;27283;52.504;13.358;2023-06-22T04:47:04;13.50;;;7.57;;
41568;SDS011;27283;52.504;13.358;2023-06-22T04:49:37;13.10;;;7.50;;
41568;SDS011;27283;52.504;13.358;2023-06-22T04:52:12;11.57;;;6.85;;
41568;SDS011;27283;52.504;13.358;2023-06-22T04:54:51;11.30;;;7.00;;
41568;SDS011;27283;52.504;13.358;2023-06-22T04:57:24;14.68;;;7.10;;
41568;SDS011;27283;52.504;13.358;2023-06-22T05:00:01;12.32;;;6.45;;
41568;SDS011;27283;52.504;13.358;2023-06-22T05:02:53;9.82;;;6.10;;
41568;SDS011;27283;52.504;13.358;2023-06-22T05:05:47;9.85;;;5.93;;
41568;SDS011;27283;52.504;13.358;2023-06-22T05:08:19;8.63;;;5.93;;
41568;SDS011;27283;52.504;13.358;2023-06-22T05:11:00;12.50;;;6.70;;
41568;SDS011;27283;52.504;13.358;2023-06-22T05:13:33;10.50;;;6.32;;
41568;SDS011;27283;52.504;13.358;2023-06-22T05:16:06;10.23;;;6.00;;
41568;SDS011;27283;52.504;13.358;2023-06-22T05:18:39;9.80;;;6.00;;
41568;SDS011;27283;52.504;13.358;2023-06-22T05:21:12;11.70;;;6.05;;
41568;SDS011;27283;52.504;13.358;2023-06-22T05:23:44;8.15;;;4.97;;
41568;SDS011;27283;52.504;13.358;2023-06-22T05:26:19;9.50;;;5.43;;
41568;SDS011;27283;52.504;13.358;2023-06-22T05:28:52;9.02;;;5.65;;
41568;SDS011;27283;52.504;13.358;2023-06-22T05:31:25;8.85;;;5.10;;
41568;SDS011;27283;52.504;13.358;2023-06-22T05:33:57;9.45;;;5.43;;
41568;SDS011;27283;52.504;13.358;2023-06-22T05:36:34;12.95;;;5.80;;
41568;SDS011;27283;52.504;13.358;2023-06-22T05:39:10;9.55;;;4.97;;
41568;SDS011;27283;52.504;13.358;2023-06-22T05:41:46;10.77;;;5.72;;
41568;SDS011;27283;52.504;13.358;2023-06-22T05:44:20;7.38;;;5.05;;
41568;SDS011;27283;52.504;13.358;2023-06-22T05:46:53;9.40;;;5.82;;
41568;SDS011;27283;52.504;13.358;2023-06-22T05:49:25;9.32;;;5.65;;
41568;SDS011;27283;52.504;13.358;2023-06-22T05:52:01;10.77;;;5.90;;
41568;SDS011;27283;52.504;13.358;2023-06-22T05:54:34;10.90;;;6.30;;
41568;SDS011;27283;52.504;13.358;2023-06-22T05:57:10;9.70;;;5.80;;
41568;SDS011;27283;52.504;13.358;2023-06-22T05:59:42;9.65;;;5.53;;
41568;SDS011;27283;52.504;13.358;2023-06-22T06:02:25;11.48;;;5.80;;
41568;SDS011;27283;52.504;13.358;2023-06-22T06:04:58;11.15;;;5.88;;
41568;SDS011;27283;52.504;13.358;2023-06-22T06:07:31;7.95;;;6.00;;
41568;SDS011;27283;52.504;13.358;2023-06-22T06:10:04;11.90;;;5.82;;
41568;SDS011;27283;52.504;13.358;2023-06-22T06:12:37;9.45;;;5.57;;
41568;SDS011;27283;52.504;13.358;2023-06-22T06:15:10;17.00;;;6.57;;
41568;SDS011;27283;52.504;13.358;2023-06-22T06:17:48;11.15;;;6.80;;
41568;SDS011;27283;52.504;13.358;2023-06-22T06:20:22;10.98;;;6.10;;
41568;SDS011;27283;52.504;13.358;2023-06-22T06:22:57;9.98;;;5.72;;
41568;SDS011;27283;52.504;13.358;2023-06-22T06:25:32;9.95;;;5.30;;
41568;SDS011;27283;52.504;13.358;2023-06-22T06:28:04;7.10;;;4.93;;
41568;SDS011;27283;52.504;13.358;2023-06-22T06:30:37;7.78;;;5.13;;
41568;SDS011;27283;52.504;13.358;2023-06-22T06:33:12;9.15;;;4.93;;
41568;SDS011;27283;52.504;13.358;2023-06-22T06:35:47;7.45;;;4.75;;
41568;SDS011;27283;52.504;13.358;2023-06-22T06:38:19;9.88;;;5.03;;
41568;SDS011;27283;52.504;13.358;2023-06-22T06:40:56;7.28;;;4.57;;
41568;SDS011;27283;52.504;13.358;2023-06-22T06:43:29;8.07;;;4.50;;
41568;SDS011;27283;52.504;13.358;2023-06-22T06:46:01;9.45;;;4.13;;
41568;SDS011;27283;52.504;13.358;2023-06-22T06:48:36;6.75;;;4.15;;
41568;SDS011;27283;52.504;13.358;2023-06-22T06:51:09;8.05;;;4.20;;
41568;SDS011;27283;52.504;13.358;2023-06-22T06:53:42;8.82;;;4.43;;
41568;SDS011;27283;52.504;13.358;2023-06-22T06:56:15;6.18;;;3.78;;
41568;SDS011;27283;52.504;13.358;2023-06-22T06:58:49;7.18;;;4.55;;
41568;SDS011;27283;52.504;13.358;2023-06-22T07:01:22;7.53;;;3.80;;
41568;SDS011;27283;52.504;13.358;2023-06-22T07:04:03;5.88;;;4.40;;
41568;SDS011;27283;52.504;13.358;2023-06-22T07:06:39;9.38;;;4.38;;
41568;SDS011;27283;52.504;13.358;2023-06-22T07:09:14;7.18;;;3.78;;
41568;SDS011;27283;52.504;13.358;2023-06-22T07:11:49;7.22;;;4.15;;
41568;SDS011;27283;52.504;13.358;2023-06-22T07:14:21;9.30;;;5.60;;
41568;SDS011;27283;52.504;13.358;2023-06-22T07:16:54;8.15;;;4.38;;
41568;SDS011;27283;52.504;13.358;2023-06-22T07:19:32;7.78;;;4.60;;
41568;SDS011;27283;52.504;13.358;2023-06-22T07:22:05;8.35;;;4.50;;
41568;SDS011;27283;52.504;13.358;2023-06-22T07:24:38;5.70;;;3.70;;
41568;SDS011;27283;52.504;13.358;2023-06-22T07:27:11;8.60;;;3.97;;
41568;SDS011;27283;52.504;13.358;2023-06-22T07:29:47;12.50;;;6.00;;
41568;SDS011;27283;52.504;13.358;2023-06-22T07:32:20;8.27;;;4.45;;
41568;SDS011;27283;52.504;13.358;2023-06-22T07:35:00;5.75;;;3.42;;
41568;SDS011;27283;52.504;13.358;2023-06-22T07:37:34;5.93;;;3.00;;
41568;SDS011;27283;52.504;13.358;2023-06-22T07:40:08;9.80;;;3.40;;
41568;SDS011;27283;52.504;13.358;2023-06-22T07:42:44;6.82;;;3.22;;
41568;SDS011;27283;52.504;13.358;2023-06-22T07:45:20;7.90;;;3.28;;
41568;SDS011;27283;52.504;13.358;2023-06-22T07:47:53;6.18;;;3.90;;
41568;SDS011;27283;52.504;13.358;2023-06-22T07:50:28;9.18;;;3.83;;
41568;SDS011;27283;52.504;13.358;2023-06-22T07:53:01;5.07;;;3.17;;
41568;SDS011;27283;52.504;13.358;2023-06-22T07:55:34;4.80;;;3.20;;
41568;SDS011;27283;52.504;13.358;2023-06-22T07:58:06;5.38;;;2.60;;
41568;SDS011;27283;52.504;13.358;2023-06-22T08:00:38;5.10;;;2.80;;
41568;SDS011;27283;52.504;13.358;2023-06-22T08:03:11;3.92;;;2.80;;
41568;SDS011;27283;52.504;13.358;2023-06-22T08:05:49;5.28;;;2.83;;
41568;SDS011;27283;52.504;13.358;2023-06-22T08:08:27;6.30;;;2.88;;
41568;SDS011;27283;52.504;13.358;2023-06-22T08:11:10;5.88;;;2.80;;
41568;SDS011;27283;52.504;13.358;2023-06-22T08:13:43;5.93;;;2.60;;
41568;SDS011;27283;52.504;13.358;2023-06-22T08:16:29;4.75;;;3.10;;
41568;SDS011;27283;52.504;13.358;2023-06-22T08:19:01;7.55;;;3.15;;
41568;SDS011;27283;52.504;13.358;2023-06-22T08:21:36;5.93;;;2.88;;
41568;SDS011;27283;52.504;13.358;2023-06-22T08:24:09;9.65;;;3.28;;
41568;SDS011;27283;52.504;13.358;2023-06-22T08:26:41;4.68;;;3.20;;
41568;SDS011;27283;52.504;13.358;2023-06-22T08:29:18;6.20;;;2.92;;
41568;SDS011;27283;52.504;13.358;2023-06-22T08:31:50;5.22;;;2.70;;
41568;SDS011;27283;52.504;13.358;2023-06-22T08:34:23;4.63;;;3.15;;
41568;SDS011;27283;52.504;13.358;2023-06-22T08:36:58;4.70;;;3.15;;
41568;SDS011;27283;52.504;13.358;2023-06-22T08:39:51;8.15;;;3.05;;
41568;SDS011;27283;52.504;13.358;2023-06-22T08:42:34;6.53;;;3.45;;
41568;SDS011;27283;52.504;13.358;2023-06-22T08:45:38;7.07;;;3.25;;
41568;SDS011;27283;52.504;13.358;2023-06-22T08:48:12;9.45;;;4.03;;
41568;SDS011;27283;52.504;13.358;2023-06-22T08:50:44;9.98;;;4.05;;
41568;SDS011;27283;52.504;13.358;2023-06-22T08:53:19;8.02;;;4.28;;
41568;SDS011;27283;52.504;13.358;2023-06-22T08:55:52;7.38;;;3.60;;
41568;SDS011;27283;52.504;13.358;2023-06-22T08:58:24;6.38;;;3.88;;
41568;SDS011;27283;52.504;13.358;2023-06-22T09:00:57;6.60;;;3.85;;
41568;SDS011;27283;52.504;13.358;2023-06-22T09:03:29;8.35;;;4.40;;
41568;SDS011;27283;52.504;13.358;2023-06-22T09:06:16;7.00;;;3.65;;
41568;SDS011;27283;52.504;13.358;2023-06-22T09:08:53;10.25;;;4.20;;
41568;SDS011;27283;52.504;13.358;2023-06-22T09:11:28;7.93;;;4.05;;
41568;SDS011;27283;52.504;13.358;2023-06-22T09:14:00;6.07;;;4.20;;
41568;SDS011;27283;52.504;13.358;2023-06-22T09:16:34;4.50;;;3.55;;
41568;SDS011;27283;52.504;13.358;2023-06-22T09:19:22;5.30;;;3.83;;
41568;SDS011;27283;52.504;13.358;2023-06-22T09:21:55;6.78;;;3.50;;
41568;SDS011;27283;52.504;13.358;2023-06-22T09:24:31;5.70;;;3.47;;
41568;SDS011;27283;52.504;13.358;2023-06-22T09:27:04;4.70;;;2.85;;
41568;SDS011;27283;52.504;13.358;2023-06-22T09:29:36;4.35;;;2.80;;
41568;SDS011;27283;52.504;13.358;2023-06-22T09:32:09;4.78;;;2.95;;
41568;SDS011;27283;52.504;13.358;2023-06-22T09:34:41;5.82;;;3.13;;
41568;SDS011;27283;52.504;13.358;2023-06-22T09:37:13;6.57;;;3.10;;
41568;SDS011;27283;52.504;13.358;2023-06-22T09:39:48;4.32;;;3.22;;
41568;SDS011;27283;52.504;13.358;2023-06-22T09:42:21;6.00;;;3.17;;
41568;SDS011;27283;52.504;13.358;2023-06-22T09:44:53;5.72;;;3.70;;
41568;SDS011;27283;52.504;13.358;2023-06-22T09:47:26;6.90;;;3.30;;
41568;SDS011;27283;52.504;13.358;2023-06-22T09:49:58;5.72;;;3.50;;
41568;SDS011;27283;52.504;13.358;2023-06-22T09:52:30;5.20;;;3.40;;
41568;SDS011;27283;52.504;13.358;2023-06-22T09:55:24;7.32;;;3.33;;
41568;SDS011;27283;52.504;13.358;2023-06-22T16:29:27;9.07;;;6.10;;
41568;SDS011;27283;52.504;13.358;2023-06-22T16:32:01;9.55;;;6.40;;
41568;SDS011;27283;52.504;13.358;2023-06-22T16:34:34;13.20;;;6.32;;
41568;SDS011;27283;52.504;13.358;2023-06-22T16:37:07;12.30;;;5.65;;
41568;SDS011;27283;52.504;13.358;2023-06-22T16:39:42;9.07;;;5.70;;
41568;SDS011;27283;52.504;13.358;2023-06-22T16:42:15;7.95;;;5.88;;
41568;SDS011;27283;52.504;13.358;2023-06-22T16:44:51;7.93;;;5.88;;
41568;SDS011;27283;52.504;13.358;2023-06-22T16:47:24;8.65;;;5.75;;
41568;SDS011;27283;52.504;13.358;2023-06-22T16:49:58;9.45;;;6.25;;
41568;SDS011;27283;52.504;13.358;2023-06-22T16:52:30;8.88;;;5.80;;
41568;SDS011;27283;52.504;13.358;2023-06-22T16:55:03;8.65;;;6.13;;
41568;SDS011;27283;52.504;13.358;2023-06-22T16:57:39;7.95;;;5.88;;
41568;SDS011;27283;52.504;13.358;2023-06-22T17:00:15;9.02;;;6.30;;
41568;SDS011;27283;52.504;13.358;2023-06-22T17:02:49;7.55;;;5.70;;
41568;SDS011;27283;52.504;13.358;2023-06-22T17:05:22;10.52;;;6.10;;
41568;SDS011;27283;52.504;13.358;2023-06-22T17:07:56;7.93;;;6.00;;
41568;SDS011;27283;52.504;13.358;2023-06-22T17:10:34;7.93;;;5.68;;
41568;SDS011;27283;52.504;13.358;2023-06-22T17:13:07;10.13;;;6.25;;
41568;SDS011;27283;52.504;13.358;2023-06-22T17:15:43;8.18;;;5.60;;
41568;SDS011;27283;52.504;13.358;2023-06-22T17:18:20;9.43;;;6.15;;
41568;SDS011;27283;52.504;13.358;2023-06-22T17:20:56;7.88;;;6.00;;
41568;SDS011;27283;52.504;13.358;2023-06-22T17:23:28;12.70;;;6.30;;
41568;SDS011;27283;52.504;13.358;2023-06-22T17:26:01;7.97;;;6.07;;
41568;SDS011;27283;52.504;13.358;2023-06-22T17:28:47;8.50;;;5.95;;
41568;SDS011;27283;52.504;13.358;2023-06-22T17:31:23;8.45;;;5.95;;
41568;SDS011;27283;52.504;13.358;2023-06-22T17:33:56;10.27;;;5.65;;
41568;SDS011;27283;52.504;13.358;2023-06-22T17:36:29;8.93;;;5.43;;
41568;SDS011;27283;52.504;13.358;2023-06-22T17:39:02;9.15;;;5.45;;
41568;SDS011;27283;52.504;13.358;2023-06-22T17:41:34;8.45;;;6.07;;
41568;SDS011;27283;52.504;13.358;2023-06-22T17:44:09;9.77;;;5.90;;
41568;SDS011;27283;52.504;13.358;2023-06-22T17:46:46;8.60;;;6.05;;
41568;SDS011;27283;52.504;13.358;2023-06-22T17:49:27;8.85;;;5.53;;
41568;SDS011;27283;52.504;13.358;2023-06-22T17:52:16;8.55;;;5.82;;
41568;SDS011;27283;52.504;13.358;2023-06-22T17:54:50;10.60;;;6.00;;
41568;SDS011;27283;52.504;13.358;2023-06-22T17:57:39;7.75;;;5.75;;
41568;SDS011;27283;52.504;13.358;2023-06-22T18:00:14;7.85;;;5.63;;
41568;SDS011;27283;52.504;13.358;2023-06-22T18:02:50;11.43;;;6.03;;
41568;SDS011;27283;52.504;13.358;2023-06-22T18:05:28;8.93;;;6.10;;
41568;SDS011;27283;52.504;13.358;2023-06-22T18:08:06;10.00;;;6.32;;
41568;SDS011;27283;52.504;13.358;2023-06-22T18:10:40;7.85;;;6.13;;
41568;SDS011;27283;52.504;13.358;2023-06-22T18:13:14;10.20;;;6.00;;
41568;SDS011;27283;52.504;13.358;2023-06-22T18:15:47;8.93;;;6.15;;
41568;SDS011;27283;52.504;13.358;2023-06-22T18:18:24;12.60;;;6.55;;
41568;SDS011;27283;52.504;13.358;2023-06-22T18:20:57;10.02;;;6.05;;
41568;SDS011;27283;52.504;13.358;2023-06-22T18:23:30;10.38;;;5.82;;
41568;SDS011;27283;52.504;13.358;2023-06-22T18:26:04;9.98;;;6.65;;
41568;SDS011;27283;52.504;13.358;2023-06-22T18:28:36;9.48;;;6.32;;
41568;SDS011;27283;52.504;13.358;2023-06-22T18:31:09;8.73;;;5.82;;
41568;SDS011;27283;52.504;13.358;2023-06-22T18:33:44;8.88;;;6.22;;
41568;SDS011;27283;52.504;13.358;2023-06-22T18:36:19;10.80;;;6.80;;
41568;SDS011;27283;52.504;13.358;2023-06-22T18:38:56;10.13;;;6.63;;
41568;SDS011;27283;52.504;13.358;2023-06-22T18:41:35;9.48;;;6.13;;
41568;SDS011;27283;52.504;13.358;2023-06-22T18:44:11;9.55;;;6.00;;
41568;SDS011;27283;52.504;13.358;2023-06-22T18:46:50;7.88;;;5.85;;
41568;SDS011;27283;52.504;13.358;2023-06-22T18:49:30;14.70;;;6.97;;
41568;SDS011;27283;52.504;13.358;2023-06-22T18:52:14;10.48;;;6.65;;
41568;SDS011;27283;52.504;13.358;2023-06-22T18:54:47;10.98;;;6.25;;
41568;SDS011;27283;52.504;13.358;2023-06-22T18:57:21;7.93;;;6.10;;
41568;SDS011;27283;52.504;13.358;2023-06-22T18:59:58;11.23;;;6.07;;
41568;SDS011;27283;52.504;13.358;2023-06-22T19:02:35;11.05;;;7.43;;
41568;SDS011;27283;52.504;13.358;2023-06-22T19:05:19;8.63;;;6.82;;
41568;SDS011;27283;52.504;13.358;2023-06-22T19:08:10;9.00;;;6.20;;
41568;SDS011;27283;52.504;13.358;2023-06-22T19:10:43;7.45;;;6.07;;
41568;SDS011;27283;52.504;13.358;2023-06-22T19:13:45;8.95;;;6.32;;
41568;SDS011;27283;52.504;13.358;2023-06-22T19:16:19;9.10;;;6.50;;
41568;SDS011;27283;52.504;13.358;2023-06-22T19:19:10;8.23;;;6.10;;
41568;SDS011;27283;52.504;13.358;2023-06-22T19:21:46;9.25;;;6.07;;
41568;SDS011;27283;52.504;13.358;2023-06-22T19:24:30;8.65;;;6.30;;
41568;SDS011;27283;52.504;13.358;2023-06-22T19:27:05;10.73;;;6.45;;
41568;SDS011;27283;52.504;13.358;2023-06-22T19:30:08;10.20;;;6.22;;
41568;SDS011;27283;52.504;13.358;2023-06-22T19:32:41;9.38;;;6.40;;
41568;SDS011;27283;52.504;13.358;2023-06-22T19:35:14;10.90;;;6.38;;
41568;SDS011;27283;52.504;13.358;2023-06-22T19:37:51;8.90;;;6.22;;
41568;SDS011;27283;52.504;13.358;2023-06-22T19:40:23;10.25;;;6.85;;
41568;SDS011;27283;52.504;13.358;2023-06-22T19:42:56;8.95;;;6.30;;
41568;SDS011;27283;52.504;13.358;2023-06-22T19:45:29;10.95;;;6.75;;
41568;SDS011;27283;52.504;13.358;2023-06-22T19:48:01;11.40;;;6.72;;
41568;SDS011;27283;52.504;13.358;2023-06-22T19:50:34;9.00;;;6.50;;
41568;SDS011;27283;52.504;13.358;2023-06-22T19:53:11;12.93;;;6.63;;
41568;SDS011;27283;52.504;13.358;2023-06-22T19:55:45;9.93;;;6.85;;
41568;SDS011;27283;52.504;13.358;2023-06-22T19:58:19;8.90;;;6.38;;
41568;SDS011;27283;52.504;13.358;2023-06-22T20:00:54;11.48;;;6.53;;
41568;SDS011;27283;52.504;13.358;2023-06-22T20:03:27;8.80;;;6.60;;
41568;SDS011;27283;52.504;13.358;2023-06-22T20:06:10;13.45;;;6.43;;
41568;SDS011;27283;52.504;13.358;2023-06-22T20:08:47;9.00;;;6.55;;
41568;SDS011;27283;52.504;13.358;2023-06-22T20:11:23;14.75;;;6.40;;
41568;SDS011;27283;52.504;13.358;2023-06-22T20:13:58;8.18;;;6.15;;
41568;SDS011;27283;52.504;13.358;2023-06-22T20:16:31;9.02;;;5.72;;
41568;SDS011;27283;52.504;13.358;2023-06-22T20:19:31;9.18;;;6.57;;
41568;SDS011;27283;52.504;13.358;2023-06-22T20:22:10;9.75;;;6.13;;
41568;SDS011;27283;52.504;13.358;2023-06-22T20:24:44;10.70;;;6.53;;
41568;SDS011;27283;52.504;13.358;2023-06-22T20:27:17;9.65;;;6.47;;
41568;SDS011;27283;52.504;13.358;2023-06-22T20:29:49;10.18;;;6.57;;
41568;SDS011;27283;52.504;13.358;2023-06-22T20:32:21;8.95;;;6.38;;
41568;SDS011;27283;52.504;13.358;2023-06-22T20:34:55;15.55;;;7.03;;
41568;SDS011;27283;52.504;13.358;2023-06-22T20:37:29;23.42;;;8.60;;
41568;SDS011;27283;52.504;13.358;2023-06-22T20:40:06;23.95;;;11.23;;
41568;SDS011;27283;52.504;13.358;2023-06-22T20:42:41;39.72;;;18.02;;
41568;SDS011;27283;52.504;13.358;2023-06-22T20:45:14;43.65;;;21.10;;
41568;SDS011;27283;52.504;13.358;2023-06-22T20:47:47;32.92;;;18.17;;
41568;SDS011;27283;52.504;13.358;2023-06-22T20:50:20;34.15;;;18.23;;
41568;SDS011;27283;52.504;13.358;2023-06-22T20:52:58;25.08;;;14.32;;
41568;SDS011;27283;52.504;13.358;2023-06-22T20:55:35;32.25;;;18.67;;
41568;SDS011;27283;52.504;13.358;2023-06-22T20:58:08;30.80;;;19.50;;
41568;SDS011;27283;52.504;13.358;2023-06-22T21:00:41;31.10;;;18.00;;
41568;SDS011;27283;52.504;13.358;2023-06-22T21:03:27;28.48;;;17.13;;
41568;SDS011;27283;52.504;13.358;2023-06-22T21:06:00;34.67;;;21.85;;
41568;SDS011;27283;52.504;13.358;2023-06-22T21:08:36;39.63;;;24.50;;
41568;SDS011;27283;52.504;13.358;2023-06-22T21:11:12;39.15;;;23.00;;
41568;SDS011;27283;52.504;13.358;2023-06-22T21:13:49;37.75;;;22.95;;
41568;SDS011;27283;52.504;13.358;2023-06-22T21:16:49;34.13;;;22.05;;
41568;SDS011;27283;52.504;13.358;2023-06-22T21:19:23;32.83;;;19.88;;
41568;SDS011;27283;52.504;13.358;2023-06-22T21:22:01;33.40;;;20.35;;
41568;SDS011;27283;52.504;13.358;2023-06-22T21:24:34;30.80;;;21.25;;
41568;SDS011;27283;52.504;13.358;2023-06-22T21:27:09;34.60;;;23.88;;
41568;SDS011;27283;52.504;13.358;2023-06-22T21:29:42;38.30;;;24.63;;
41568;SDS011;27283;52.504;13.358;2023-06-22T21:32:14;34.97;;;23.15;;
41568;SDS011;27283;52.504;13.358;2023-06-22T21:34:47;36.42;;;24.55;;
41568;SDS011;27283;52.504;13.358;2023-06-22T21:37:19;34.80;;;23.33;;
41568;SDS011;27283;52.504;13.358;2023-06-22T21:39:55;38.85;;;24.27;;
41568;SDS011;27283;52.504;13.358;2023-06-22T21:42:30;36.20;;;23.63;;
41568;SDS011;27283;52.504;13.358;2023-06-22T21:45:06;32.55;;;22.42;;
41568;SDS011;27283;52.504;13.358;2023-06-22T21:47:39;35.97;;;22.70;;
41568;SDS011;27283;52.504;13.358;2023-06-22T21:50:12;45.22;;;29.35;;